Time;durP1;ratioP1;P1;durP2;ratioP2;P2;SDS_P1;SDS_P2;PMS_P1;PMS_P2;Temp;Humidity;BMP_temperature;BMP_pressure;BME280_temperature;BME280_humidity;BME280_pressure;Samples;Min_cycle;Max_cycle;Signal;HPM_P1;HPM_P2
2021/01/30 00:01:11;;;;;;;1.80;1.70;;;7.00;90.60;;;;;;5046252;28;20453;-82
2021/01/30 00:03:37;;;;;;;4.00;2.73;;;7.10;90.30;;;;;;5042140;28;20478;-83
2021/01/30 00:06:05;;;;;;;3.73;1.47;;;7.10;90.00;;;;;;5048504;28;20449;-82
2021/01/30 00:08:32;;;;;;;1.43;1.30;;;7.10;90.00;;;;;;5054324;28;20554;-82
2021/01/30 00:10:59;;;;;;;3.33;1.67;;;7.20;89.30;;;;;;5056161;28;21063;-84
2021/01/30 00:13:25;;;;;;;3.30;2.10;;;7.10;89.30;;;;;;5060849;28;20450;-79
2021/01/30 00:15:51;;;;;;;1.87;1.23;;;7.10;89.60;;;;;;5057235;28;20533;-81
2021/01/30 00:18:18;;;;;;;1.67;1.27;;;7.10;88.60;;;;;;5064916;28;20465;-80
2021/01/30 00:20:44;;;;;;;4.10;1.37;;;7.10;88.20;;;;;;5061026;28;20539;-82
2021/01/30 00:23:12;;;;;;;2.77;1.43;;;7.10;87.60;;;;;;5061468;28;20442;-81
2021/01/30 00:25:38;;;;;;;0.80;0.70;;;7.10;87.90;;;;;;5051711;28;20449;-80
2021/01/30 00:28:06;;;;;;;2.40;1.33;;;7.20;88.30;;;;;;5058573;28;20583;-81
2021/01/30 00:30:40;;;;;;;1.30;0.97;;;7.10;88.20;;;;;;5048636;28;20541;-80
2021/01/30 00:33:07;;;;;;;1.70;0.83;;;7.00;87.80;;;;;;5046789;28;20944;-81
2021/01/30 00:35:35;;;;;;;2.50;0.97;;;7.00;88.30;;;;;;5053385;28;20526;-83
2021/01/30 00:38:02;;;;;;;1.13;1.07;;;6.90;89.30;;;;;;5061251;28;20575;-81
2021/01/30 00:40:29;;;;;;;1.73;1.20;;;6.80;89.50;;;;;;5058982;28;20458;-81
2021/01/30 00:42:56;;;;;;;1.47;1.20;;;6.70;89.90;;;;;;5054416;28;20452;-81
2021/01/30 00:45:25;;;;;;;1.30;1.20;;;6.70;88.50;;;;;;5052714;28;20475;-83
2021/01/30 00:47:52;;;;;;;1.73;1.20;;;6.60;88.50;;;;;;5058777;28;20493;-81
2021/01/30 00:50:19;;;;;;;1.70;1.60;;;6.50;89.10;;;;;;5050411;28;20486;-81
2021/01/30 00:52:47;;;;;;;2.30;1.63;;;6.40;90.10;;;;;;5052040;28;20449;-80
2021/01/30 00:55:17;;;;;;;1.70;1.60;;;6.20;90.70;;;;;;5062746;28;20456;-81
2021/01/30 00:57:44;;;;;;;4.63;1.80;;;6.20;90.90;;;;;;5057962;28;20472;-81
2021/01/30 01:00:14;;;;;;;9.83;1.57;;;6.10;91.60;;;;;;5061442;28;20476;-81
2021/01/30 01:02:40;;;;;;;1.50;1.27;;;6.00;92.60;;;;;;5058842;28;20468;-80
2021/01/30 01:05:08;;;;;;;2.23;1.20;;;6.00;92.00;;;;;;5057223;28;20504;-80
2021/01/30 01:07:34;;;;;;;2.57;1.90;;;6.10;91.60;;;;;;5055101;28;20465;-81
2021/01/30 01:10:01;;;;;;;1.90;1.40;;;6.20;90.40;;;;;;5056984;28;20444;-79
2021/01/30 01:12:27;;;;;;;1.90;1.80;;;6.40;88.10;;;;;;5048534;28;20532;-80
2021/01/30 01:14:54;;;;;;;1.60;1.50;;;6.50;87.40;;;;;;5051443;28;20514;-80
2021/01/30 01:17:21;;;;;;;3.10;1.67;;;6.60;85.90;;;;;;5052701;28;20489;-81
2021/01/30 01:19:47;;;;;;;3.97;1.87;;;6.60;85.40;;;;;;5046406;28;20461;-81
2021/01/30 01:22:14;;;;;;;1.90;1.80;;;6.60;84.50;;;;;;5056373;28;20472;-80
2021/01/30 01:24:41;;;;;;;2.10;1.60;;;6.70;83.80;;;;;;5063096;28;20453;-83
2021/01/30 01:27:07;;;;;;;1.50;1.13;;;6.70;82.70;;;;;;5056584;28;20457;-80
2021/01/30 01:29:33;;;;;;;2.17;1.40;;;6.80;82.40;;;;;;5053560;28;20453;-81
2021/01/30 01:32:00;;;;;;;3.47;1.60;;;6.80;81.10;;;;;;5065626;28;20472;-81
2021/01/30 01:34:29;;;;;;;1.20;1.10;;;6.80;80.70;;;;;;5056732;28;20457;-82
2021/01/30 01:36:58;;;;;;;2.23;1.27;;;6.90;80.10;;;;;;5062944;28;20939;-80
2021/01/30 01:39:25;;;;;;;1.80;1.13;;;6.90;79.50;;;;;;5051985;28;20445;-80
2021/01/30 01:42:08;;;;;;;2.10;0.97;;;6.90;79.10;;;;;;5056538;28;20442;-79
2021/01/30 01:44:34;;;;;;;2.03;0.93;;;7.00;78.40;;;;;;5047268;28;20499;-80
2021/01/30 01:47:03;;;;;;;1.17;1.00;;;7.00;77.70;;;;;;5043249;28;20450;-80
2021/01/30 01:49:32;;;;;;;2.47;0.80;;;7.10;76.90;;;;;;5049271;28;20554;-80
2021/01/30 01:52:09;;;;;;;3.17;1.20;;;7.10;77.00;;;;;;5058889;28;20518;-79
2021/01/30 01:54:39;;;;;;;3.77;1.30;;;7.10;76.30;;;;;;5037892;28;20450;-79
2021/01/30 01:57:11;;;;;;;2.53;0.80;;;7.10;76.20;;;;;;5049769;28;20473;-79
2021/01/30 01:59:41;;;;;;;1.47;1.10;;;7.10;75.90;;;;;;5050670;28;20466;-80
2021/01/30 02:02:10;;;;;;;1.87;1.10;;;7.10;76.20;;;;;;5046437;28;20442;-80
2021/01/30 02:04:38;;;;;;;8.90;1.33;;;7.10;76.30;;;;;;5051669;28;20477;-80
2021/01/30 02:07:05;;;;;;;1.53;1.10;;;7.10;76.60;;;;;;5056979;28;20458;-80
2021/01/30 02:09:32;;;;;;;1.73;0.90;;;7.10;77.00;;;;;;5052674;28;20447;-80
2021/01/30 02:12:05;;;;;;;1.80;1.00;;;7.10;77.00;;;;;;5054427;28;20450;-80
2021/01/30 02:14:36;;;;;;;2.40;1.60;;;7.10;77.00;;;;;;5059081;28;20588;-80
2021/01/30 02:17:15;;;;;;;2.80;1.40;;;7.00;77.10;;;;;;5049750;28;20470;-80
2021/01/30 02:20:15;;;;;;;1.63;1.40;;;7.00;77.30;;;;;;5058180;28;20473;-80
2021/01/30 02:23:33;;;;;;;1.43;1.33;;;7.00;77.30;;;;;;5044201;28;20442;-80
2021/01/30 02:26:27;;;;;;;1.93;1.20;;;7.10;77.00;;;;;;5050303;28;20495;-80
2021/01/30 02:29:10;;;;;;;2.60;1.40;;;7.10;76.70;;;;;;5049331;28;20474;-79
2021/01/30 02:31:51;;;;;;;4.20;1.50;;;7.10;76.90;;;;;;5049260;28;20483;-79
2021/01/30 02:34:46;;;;;;;1.77;1.30;;;7.00;76.80;;;;;;5042817;28;20462;-80
2021/01/30 02:37:20;;;;;;;2.50;1.47;;;7.00;77.10;;;;;;5052683;28;20484;-79
2021/01/30 02:39:51;;;;;;;4.27;1.60;;;7.10;76.40;;;;;;5043572;28;20484;-79
2021/01/30 02:42:21;;;;;;;2.83;1.57;;;7.10;76.70;;;;;;5052879;28;20528;-79
2021/01/30 02:44:51;;;;;;;1.50;1.40;;;7.10;76.70;;;;;;5063329;28;20457;-80
2021/01/30 02:47:21;;;;;;;1.90;1.43;;;7.00;77.00;;;;;;5055226;28;20457;-79
2021/01/30 02:49:52;;;;;;;2.90;1.27;;;7.00;76.90;;;;;;5050857;28;20476;-79
2021/01/30 02:52:23;;;;;;;1.50;1.13;;;7.00;77.20;;;;;;5043892;28;20476;-79
2021/01/30 02:54:53;;;;;;;1.97;1.10;;;7.00;77.10;;;;;;5052702;28;20547;-80
2021/01/30 02:57:20;;;;;;;1.57;1.47;;;7.00;77.10;;;;;;5046319;28;20453;-80
2021/01/30 02:59:48;;;;;;;2.13;1.43;;;7.00;77.20;;;;;;5048367;28;20447;-81
2021/01/30 03:02:15;;;;;;;1.37;1.27;;;6.90;77.50;;;;;;5045076;28;20453;-80
2021/01/30 03:04:44;;;;;;;2.40;1.60;;;7.00;77.10;;;;;;5045642;28;20450;-80
2021/01/30 03:07:44;;;;;;;3.43;1.53;;;6.90;77.10;;;;;;5045194;28;20583;-80
2021/01/30 03:10:31;;;;;;;1.23;1.10;;;6.80;77.40;;;;;;5052071;28;20458;-82
2021/01/30 03:13:07;;;;;;;2.70;1.43;;;6.80;77.20;;;;;;5046828;28;20445;-80
2021/01/30 03:15:38;;;;;;;2.60;1.33;;;6.80;77.00;;;;;;5044092;28;20465;-80
2021/01/30 03:18:07;;;;;;;2.10;1.30;;;6.80;77.00;;;;;;5059348;28;20503;-80
2021/01/30 03:20:39;;;;;;;2.73;1.53;;;6.80;77.10;;;;;;5063749;28;20532;-80
2021/01/30 03:23:08;;;;;;;5.13;1.60;;;6.70;77.10;;;;;;5044218;28;20462;-79
2021/01/30 03:25:36;;;;;;;5.27;1.40;;;6.70;76.90;;;;;;5053879;28;20449;-79
2021/01/30 03:28:03;;;;;;;2.87;1.27;;;6.70;76.60;;;;;;5049137;28;20466;-80
2021/01/30 03:30:31;;;;;;;1.80;1.20;;;6.70;76.60;;;;;;5049995;28;20470;-80
2021/01/30 03:32:58;;;;;;;1.57;1.23;;;6.70;76.70;;;;;;5064219;28;20466;-80
2021/01/30 03:35:25;;;;;;;3.67;1.60;;;6.70;76.70;;;;;;5063844;28;20456;-79
2021/01/30 03:37:52;;;;;;;2.20;1.40;;;6.60;76.70;;;;;;5053400;28;20453;-80
2021/01/30 03:40:21;;;;;;;2.03;1.03;;;6.60;76.70;;;;;;5042519;28;20445;-80
2021/01/30 03:42:49;;;;;;;4.30;1.03;;;6.60;76.70;;;;;;5047887;28;20506;-79
2021/01/30 03:45:18;;;;;;;1.10;1.00;;;6.60;76.70;;;;;;5048653;28;21340;-79
2021/01/30 03:47:45;;;;;;;1.67;1.33;;;6.60;76.80;;;;;;5046355;28;20515;-79
2021/01/30 03:50:13;;;;;;;1.10;0.97;;;6.60;76.90;;;;;;5051496;28;20454;-80
2021/01/30 03:52:40;;;;;;;2.10;1.03;;;6.60;77.00;;;;;;5042613;28;20450;-80
2021/01/30 03:55:08;;;;;;;1.60;1.23;;;6.60;77.10;;;;;;5051638;28;20453;-80
2021/01/30 03:57:36;;;;;;;3.30;0.93;;;6.60;77.20;;;;;;5055394;28;20480;-79
2021/01/30 04:00:05;;;;;;;2.10;1.50;;;6.50;77.30;;;;;;5057115;28;20469;-80
2021/01/30 04:02:32;;;;;;;3.77;1.37;;;6.60;77.30;;;;;;5058493;28;21087;-79
2021/01/30 04:04:58;;;;;;;1.40;0.90;;;6.60;77.40;;;;;;5045755;28;20458;-79
2021/01/30 04:07:25;;;;;;;2.10;1.40;;;6.60;77.50;;;;;;5044445;28;20883;-79
2021/01/30 04:09:51;;;;;;;1.63;1.10;;;6.60;77.60;;;;;;5047524;28;20465;-80
2021/01/30 04:12:17;;;;;;;1.10;0.83;;;6.50;77.70;;;;;;5043912;28;20504;-80
2021/01/30 04:14:44;;;;;;;1.13;1.03;;;6.60;77.80;;;;;;5043289;28;20502;-80
2021/01/30 04:17:11;;;;;;;4.07;1.80;;;6.60;77.80;;;;;;5043524;28;20478;-80
2021/01/30 04:19:38;;;;;;;1.50;1.20;;;6.60;77.90;;;;;;5048437;28;20481;-78
2021/01/30 04:22:04;;;;;;;1.87;1.30;;;6.60;78.10;;;;;;5052229;28;20473;-79
2021/01/30 04:24:31;;;;;;;2.40;1.20;;;6.60;78.20;;;;;;5055235;28;20549;-79
2021/01/30 04:26:58;;;;;;;2.47;1.00;;;6.60;78.10;;;;;;5054955;28;20540;-79
2021/01/30 04:29:24;;;;;;;2.37;1.13;;;6.60;78.20;;;;;;5052468;28;20493;-80
2021/01/30 04:31:54;;;;;;;1.83;1.30;;;6.60;78.30;;;;;;5059469;28;20450;-79
2021/01/30 04:34:21;;;;;;;2.63;1.27;;;6.60;78.40;;;;;;5044280;28;21000;-79
2021/01/30 04:36:47;;;;;;;2.70;1.40;;;6.60;78.30;;;;;;5045329;28;20596;-80
2021/01/30 04:39:13;;;;;;;4.57;1.30;;;6.60;78.30;;;;;;5053021;28;20477;-80
2021/01/30 04:41:49;;;;;;;2.83;1.20;;;6.60;78.40;;;;;;5049081;28;20859;-80
2021/01/30 04:44:22;;;;;;;4.40;1.37;;;6.60;78.20;;;;;;5052240;28;21025;-79
2021/01/30 04:47:04;;;;;;;2.70;1.13;;;6.60;78.30;;;;;;5045004;28;20512;-79
2021/01/30 04:49:39;;;;;;;3.90;1.70;;;6.60;78.30;;;;;;5045663;28;20485;-80
2021/01/30 04:52:11;;;;;;;5.03;1.47;;;6.60;78.30;;;;;;5039095;28;20543;-80
2021/01/30 04:54:54;;;;;;;1.70;1.27;;;6.70;78.50;;;;;;5060965;28;20522;-80
2021/01/30 04:57:35;;;;;;;1.10;1.00;;;6.60;78.40;;;;;;5061719;28;20475;-79
2021/01/30 05:00:24;;;;;;;2.17;1.20;;;6.70;78.50;;;;;;5049930;28;20430;-78
2021/01/30 05:03:13;;;;;;;2.20;1.20;;;6.70;78.30;;;;;;5042623;28;20452;-81
2021/01/30 05:05:41;;;;;;;1.97;1.27;;;6.70;78.30;;;;;;5055106;28;20450;-79
2021/01/30 05:08:14;;;;;;;3.93;1.40;;;6.70;78.30;;;;;;5048208;28;20489;-79
2021/01/30 05:10:44;;;;;;;2.03;1.20;;;6.70;78.30;;;;;;5051295;28;20479;-81
2021/01/30 05:13:17;;;;;;;1.50;1.07;;;6.70;78.20;;;;;;5052226;28;20442;-79
2021/01/30 05:15:49;;;;;;;1.40;1.30;;;6.70;78.40;;;;;;5049963;28;20443;-80
2021/01/30 05:18:22;;;;;;;2.00;1.07;;;6.70;78.30;;;;;;5064389;28;20556;-81
2021/01/30 05:20:54;;;;;;;1.37;1.27;;;6.70;78.30;;;;;;5062703;28;20461;-79
2021/01/30 05:23:21;;;;;;;2.90;1.30;;;6.70;78.40;;;;;;5054301;28;20445;-80
2021/01/30 05:25:54;;;;;;;2.90;0.97;;;6.80;78.50;;;;;;5045779;28;20544;-79
2021/01/30 05:28:32;;;;;;;2.20;1.23;;;6.70;78.50;;;;;;5042132;28;20497;-79
2021/01/30 05:31:22;;;;;;;4.90;1.10;;;6.70;78.30;;;;;;5044331;28;21044;-80
2021/01/30 05:34:10;;;;;;;2.30;1.10;;;6.70;78.30;;;;;;5054607;28;20449;-80
2021/01/30 05:36:42;;;;;;;2.17;1.00;;;6.70;78.50;;;;;;5047857;28;20506;-81
2021/01/30 05:39:21;;;;;;;2.50;0.90;;;6.70;78.40;;;;;;5047652;28;21024;-80
2021/01/30 05:41:58;;;;;;;2.10;1.00;;;6.70;78.40;;;;;;5048913;28;20510;-79
2021/01/30 05:44:33;;;;;;;3.30;1.00;;;6.70;78.40;;;;;;5047403;28;20581;-79
2021/01/30 05:47:00;;;;;;;1.13;1.03;;;6.70;78.40;;;;;;5055392;28;20461;-80
2021/01/30 05:49:33;;;;;;;4.23;1.20;;;6.70;78.40;;;;;;5055113;28;20461;-80
2021/01/30 05:52:04;;;;;;;0.97;0.87;;;6.70;78.50;;;;;;5060376;28;20446;-80
2021/01/30 05:54:30;;;;;;;1.90;1.33;;;6.60;78.50;;;;;;5045802;28;20478;-80
2021/01/30 05:56:57;;;;;;;1.57;0.90;;;6.60;78.50;;;;;;5045982;28;20450;-79
2021/01/30 05:59:26;;;;;;;2.87;0.67;;;6.60;78.80;;;;;;5041015;28;21050;-78
2021/01/30 06:02:10;;;;;;;2.70;1.03;;;6.60;79.50;;;;;;5045424;28;20493;-79
2021/01/30 06:04:38;;;;;;;1.40;0.67;;;6.50;80.10;;;;;;5041887;28;20503;-80
2021/01/30 06:07:06;;;;;;;2.70;1.10;;;6.40;81.00;;;;;;5049456;28;20499;-79
2021/01/30 06:09:36;;;;;;;3.07;0.90;;;6.40;82.60;;;;;;5041815;28;20464;-80
2021/01/30 06:12:18;;;;;;;2.63;1.20;;;6.30;84.60;;;;;;5049901;28;20448;-80
2021/01/30 06:14:44;;;;;;;2.30;1.00;;;6.20;87.10;;;;;;5041511;28;20507;-80
2021/01/30 06:17:15;;;;;;;2.20;1.10;;;6.20;88.90;;;;;;5057213;28;21030;-80
2021/01/30 06:19:43;;;;;;;1.60;0.83;;;6.10;90.10;;;;;;5054533;28;20523;-80
2021/01/30 06:22:19;;;;;;;1.63;1.07;;;6.10;90.80;;;;;;5060510;28;20460;-80
2021/01/30 06:24:46;;;;;;;2.43;1.00;;;6.10;91.50;;;;;;5045625;28;20449;-80
2021/01/30 06:27:25;;;;;;;1.13;1.03;;;6.00;92.10;;;;;;5036660;28;20445;-79
2021/01/30 06:29:55;;;;;;;1.43;1.33;;;6.00;92.10;;;;;;5050391;28;20445;-79
2021/01/30 06:32:26;;;;;;;2.93;1.40;;;6.20;92.50;;;;;;5045448;28;20433;-81
2021/01/30 06:34:56;;;;;;;2.43;1.20;;;6.00;92.60;;;;;;5040110;28;20461;-81
2021/01/30 06:37:48;;;;;;;1.97;1.50;;;6.10;93.00;;;;;;5038394;28;20478;-81
2021/01/30 06:40:19;;;;;;;2.43;1.50;;;6.00;93.00;;;;;;5029420;28;20485;-82
2021/01/30 06:42:48;;;;;;;3.90;1.77;;;6.00;93.50;;;;;;5048920;28;21032;-81
2021/01/30 06:45:25;;;;;;;2.57;1.20;;;6.00;93.30;;;;;;5042777;28;20508;-80
2021/01/30 06:47:52;;;;;;;1.80;1.30;;;6.00;93.50;;;;;;5042566;28;20556;-80
2021/01/30 06:50:30;;;;;;;2.20;1.50;;;6.10;93.00;;;;;;5041390;28;20966;-80
2021/01/30 06:53:13;;;;;;;2.50;1.27;;;6.10;93.40;;;;;;5041127;28;20448;-80
2021/01/30 06:55:39;;;;;;;1.63;1.23;;;6.10;92.80;;;;;;5051289;28;20452;-79
2021/01/30 06:58:07;;;;;;;1.40;0.97;;;6.10;92.70;;;;;;5056322;28;20482;-80
2021/01/30 07:00:36;;;;;;;1.63;1.37;;;6.10;92.70;;;;;;5057716;28;20456;-80
2021/01/30 07:03:11;;;;;;;1.60;1.13;;;6.10;94.00;;;;;;5046493;28;20456;-80
2021/01/30 07:05:46;;;;;;;3.70;1.13;;;6.10;94.10;;;;;;5038475;28;21237;-80
2021/01/30 07:08:30;;;;;;;1.73;1.57;;;6.00;94.30;;;;;;5046788;28;20480;-80
2021/01/30 07:11:05;;;;;;;3.47;1.03;;;6.10;94.30;;;;;;5048850;28;20477;-80
2021/01/30 07:13:48;;;;;;;2.50;0.87;;;6.10;93.40;;;;;;5045684;28;20463;-81
2021/01/30 07:16:27;;;;;;;1.50;0.90;;;6.10;94.10;;;;;;5045098;28;20526;-80
2021/01/30 07:19:03;;;;;;;1.00;0.90;;;6.10;93.80;;;;;;5062992;28;20479;-81
2021/01/30 07:21:35;;;;;;;1.00;0.80;;;6.10;93.30;;;;;;5055823;28;20456;-80
2021/01/30 07:24:22;;;;;;;1.60;1.20;;;6.10;93.80;;;;;;5052373;28;20505;-80
2021/01/30 07:26:54;;;;;;;0.90;0.80;;;6.10;94.60;;;;;;5036016;28;20464;-80
2021/01/30 07:29:39;;;;;;;1.47;0.80;;;6.10;93.70;;;;;;5057647;28;20483;-80
2021/01/30 07:32:11;;;;;;;2.03;1.00;;;6.10;93.30;;;;;;5053753;28;20450;-81
2021/01/30 07:34:49;;;;;;;0.80;0.70;;;6.10;92.80;;;;;;5062218;28;20441;-80
2021/01/30 07:37:21;;;;;;;1.20;0.90;;;6.20;92.90;;;;;;5056127;28;20459;-80
2021/01/30 07:39:52;;;;;;;2.00;0.80;;;6.20;92.20;;;;;;5046835;28;20476;-80
2021/01/30 07:42:23;;;;;;;0.83;0.60;;;6.20;91.60;;;;;;5047109;28;20896;-80
2021/01/30 07:45:01;;;;;;;0.83;0.80;;;6.20;91.30;;;;;;5051332;28;20524;-83
2021/01/30 07:47:34;;;;;;;1.07;1.00;;;6.20;91.30;;;;;;5050828;28;20459;-80
2021/01/30 07:50:04;;;;;;;0.67;0.60;;;6.30;91.40;;;;;;5048706;28;20446;-80
2021/01/30 07:52:51;;;;;;;1.60;0.90;;;6.20;91.50;;;;;;5044990;28;20473;-80
2021/01/30 07:55:17;;;;;;;1.07;0.60;;;6.30;91.70;;;;;;5051624;28;20449;-80
2021/01/30 07:58:26;;;;;;;16.23;1.57;;;6.30;91.60;;;;;;5048951;28;20536;-82
2021/01/30 08:01:09;;;;;;;2.90;0.80;;;6.30;91.40;;;;;;5035971;28;20460;-79
2021/01/30 08:03:52;;;;;;;0.97;0.77;;;6.30;91.10;;;;;;5052945;28;20524;-81
2021/01/30 08:06:37;;;;;;;1.50;0.87;;;6.30;91.10;;;;;;5055248;28;20469;-80
2021/01/30 08:09:16;;;;;;;1.20;1.03;;;6.30;91.20;;;;;;5047034;28;20486;-79
2021/01/30 08:11:50;;;;;;;2.87;0.90;;;6.30;91.50;;;;;;5043375;28;20525;-80
2021/01/30 08:14:36;;;;;;;0.80;0.70;;;6.30;91.20;;;;;;5045144;28;20437;-81
2021/01/30 08:17:11;;;;;;;2.50;2.30;;;6.40;91.60;;;;;;5054874;28;20900;-81
2021/01/30 08:19:49;;;;;;;2.40;1.30;;;6.30;91.30;;;;;;5055355;28;20514;-81
2021/01/30 08:22:21;;;;;;;8.00;1.50;;;6.40;91.40;;;;;;5046402;28;20468;-79
2021/01/30 08:24:56;;;;;;;2.00;1.17;;;6.40;91.10;;;;;;5047739;28;20445;-80
2021/01/30 08:27:27;;;;;;;2.10;1.47;;;6.40;90.90;;;;;;5047898;28;20468;-80
2021/01/30 08:29:59;;;;;;;3.00;1.20;;;6.30;91.00;;;;;;5048968;28;20497;-80
2021/01/30 08:32:37;;;;;;;3.50;1.40;;;6.40;91.20;;;;;;5048273;28;20897;-81
2021/01/30 08:35:38;;;;;;;5.63;2.10;;;6.40;91.10;;;;;;5053894;28;20454;-82
2021/01/30 08:38:07;;;;;;;3.17;1.67;;;6.40;91.10;;;;;;5052407;28;20467;-84
2021/01/30 08:40:50;;;;;;;4.10;1.83;;;6.60;90.50;;;;;;5072803;28;20460;-80
2021/01/30 08:43:24;;;;;;;4.53;1.77;;;6.60;90.30;;;;;;5068821;28;20445;-81
2021/01/30 08:45:51;;;;;;;3.80;1.57;;;6.60;89.40;;;;;;5060006;28;20453;-80
2021/01/30 08:48:31;;;;;;;4.10;2.43;;;6.70;89.10;;;;;;5066312;28;20497;-86
2021/01/30 08:50:59;;;;;;;6.93;1.77;;;6.70;88.60;;;;;;5062032;28;21071;-83
2021/01/30 08:53:32;;;;;;;6.70;2.43;;;6.70;87.90;;;;;;5071170;28;20460;-82
2021/01/30 08:56:01;;;;;;;6.97;2.07;;;6.70;87.40;;;;;;5057612;28;20468;-82
2021/01/30 08:58:52;;;;;;;7.80;2.70;;;6.70;86.90;;;;;;5055990;28;20459;-81
2021/01/30 09:01:46;;;;;;;7.57;2.70;;;6.70;86.90;;;;;;5050203;28;20956;-81
2021/01/30 09:04:42;;;;;;;5.83;3.13;;;6.70;86.50;;;;;;5052183;28;20446;-82
2021/01/30 09:07:08;;;;;;;6.77;2.80;;;6.80;85.90;;;;;;5056909;28;21269;-82
2021/01/30 09:10:13;;;;;;;6.43;2.50;;;6.90;85.10;;;;;;5050087;28;20480;-82
2021/01/30 09:12:52;;;;;;;6.30;2.37;;;6.80;84.50;;;;;;5047640;28;20466;-81
2021/01/30 09:16:02;;;;;;;9.00;3.07;;;7.00;83.70;;;;;;5052214;28;20473;-81
2021/01/30 09:18:48;;;;;;;7.93;2.20;;;7.00;83.60;;;;;;5022625;28;20474;-82
2021/01/30 09:21:20;;;;;;;7.47;2.30;;;7.00;82.40;;;;;;5062246;28;20497;-83
2021/01/30 09:23:59;;;;;;;8.33;2.30;;;7.00;81.50;;;;;;5065689;28;20439;-82
2021/01/30 09:26:33;;;;;;;13.40;2.53;;;7.00;82.00;;;;;;5062387;28;20525;-80
2021/01/30 09:29:02;;;;;;;5.73;2.40;;;7.00;82.10;;;;;;5043332;28;20773;-79
2021/01/30 09:31:30;;;;;;;7.50;2.90;;;6.90;81.80;;;;;;5042898;28;20463;-80
2021/01/30 09:34:06;;;;;;;8.87;2.83;;;6.90;81.80;;;;;;5042654;28;20446;-80
2021/01/30 09:36:37;;;;;;;8.30;3.37;;;6.90;81.80;;;;;;5042461;28;20536;-79
2021/01/30 09:39:21;;;;;;;3.87;0.87;;;6.90;81.50;;;;;;5045656;28;20453;-79
2021/01/30 09:41:48;;;;;;;3.97;0.90;;;5.70;78.90;;;;;;5041307;28;20456;-81
2021/01/30 09:44:21;;;;;;;2.10;0.80;;;5.10;80.60;;;;;;5055605;28;20447;-81
2021/01/30 09:46:52;;;;;;;10.63;1.30;;;5.10;81.90;;;;;;5062033;28;20465;-84
2021/01/30 09:49:22;;;;;;;1.00;0.60;;;4.80;95.70;;;;;;5071983;28;20496;-81
2021/01/30 09:51:53;;;;;;;1.13;1.03;;;4.40;99.90;;;;;;5052248;28;20471;-81
2021/01/30 09:54:22;;;;;;;1.13;0.53;;;4.10;99.90;;;;;;5054445;28;20445;-81
2021/01/30 09:56:48;;;;;;;2.33;0.70;;;4.00;99.90;;;;;;5051114;28;20826;-80
2021/01/30 09:59:22;;;;;;;0.70;0.50;;;3.60;99.90;;;;;;5068390;28;20460;-80
2021/01/30 10:01:48;;;;;;;1.73;0.70;;;3.60;99.90;;;;;;5070895;28;20440;-81
2021/01/30 10:04:18;;;;;;;0.57;0.57;;;3.50;99.90;;;;;;5055169;28;20464;-80
2021/01/30 10:06:46;;;;;;;1.07;0.67;;;3.60;99.90;;;;;;5060372;28;20461;-79
2021/01/30 10:09:16;;;;;;;0.60;0.50;;;3.60;99.90;;;;;;5055354;28;20461;-81
2021/01/30 10:11:47;;;;;;;0.80;0.60;;;3.60;99.90;;;;;;5056959;28;20460;-80
2021/01/30 10:14:15;;;;;;;0.70;0.60;;;3.60;99.90;;;;;;5047799;28;20453;-81
2021/01/30 10:16:54;;;;;;;0.87;0.70;;;3.40;99.90;;;;;;5046295;28;20483;-80
2021/01/30 10:19:24;;;;;;;1.07;0.77;;;3.60;99.90;;;;;;5052964;28;20455;-80
2021/01/30 10:21:51;;;;;;;1.23;0.97;;;3.60;99.90;;;;;;5054992;28;21013;-82
2021/01/30 10:24:22;;;;;;;2.77;1.13;;;3.60;99.90;;;;;;5048840;28;20457;-83
2021/01/30 10:26:51;;;;;;;0.80;0.80;;;3.70;99.90;;;;;;5047188;28;20540;-83
2021/01/30 10:29:20;;;;;;;0.50;0.50;;;3.80;99.90;;;;;;5053309;28;20480;-83
2021/01/30 10:31:52;;;;;;;0.60;0.60;;;3.50;99.90;;;;;;5048258;28;20460;-82
2021/01/30 10:34:25;;;;;;;0.50;0.50;;;3.60;99.90;;;;;;5046252;28;20459;-82
2021/01/30 10:36:57;;;;;;;1.30;0.60;;;3.50;99.90;;;;;;5047720;28;20448;-81
2021/01/30 10:39:25;;;;;;;1.00;1.00;;;3.50;99.90;;;;;;5052231;28;20474;-81
2021/01/30 10:41:53;;;;;;;0.90;0.90;;;3.50;99.90;;;;;;5058059;28;20459;-82
2021/01/30 10:44:26;;;;;;;1.20;1.10;;;3.80;99.90;;;;;;5062924;28;20459;-82
2021/01/30 10:46:58;;;;;;;0.80;0.73;;;3.60;99.90;;;;;;5051477;28;20643;-82
2021/01/30 10:49:26;;;;;;;1.07;0.97;;;3.70;99.90;;;;;;5046340;28;20516;-81
2021/01/30 10:51:58;;;;;;;0.90;0.90;;;3.60;99.90;;;;;;5053331;28;20484;-81
2021/01/30 10:54:28;;;;;;;0.97;0.70;;;3.10;99.90;;;;;;5047160;28;20471;-81
2021/01/30 10:57:22;;;;;;;1.23;1.13;;;3.10;99.90;;;;;;5052247;28;20483;-83
2021/01/30 10:59:51;;;;;;;1.27;1.17;;;3.00;99.90;;;;;;5050057;28;20487;-84
2021/01/30 11:02:44;;;;;;;1.37;1.27;;;3.00;96.80;;;;;;5052403;28;20464;-84
2021/01/30 11:05:25;;;;;;;1.23;1.10;;;3.20;99.90;;;;;;5041488;28;20457;-83
2021/01/30 11:07:53;;;;;;;1.53;1.20;;;3.40;95.60;;;;;;5048872;28;20471;-83
2021/01/30 11:10:24;;;;;;;0.57;0.57;;;3.30;98.30;;;;;;5047706;28;20463;-84
2021/01/30 11:12:52;;;;;;;1.20;1.10;;;3.00;93.10;;;;;;5048650;28;20447;-83
2021/01/30 11:15:23;;;;;;;2.13;1.17;;;3.10;96.90;;;;;;5051976;28;20466;-82
2021/01/30 11:18:10;;;;;;;1.70;1.20;;;3.40;98.50;;;;;;5048177;28;21130;-83
2021/01/30 11:20:41;;;;;;;2.40;1.20;;;3.60;94.60;;;;;;5057505;28;20462;-84
2021/01/30 11:23:08;;;;;;;1.20;1.10;;;3.60;96.10;;;;;;5055044;28;20502;-82
2021/01/30 11:25:38;;;;;;;1.37;1.27;;;3.60;94.10;;;;;;5056109;28;20452;-81
2021/01/30 11:28:04;;;;;;;1.93;1.60;;;3.80;91.90;;;;;;5058268;28;20984;-81
2021/01/30 11:30:31;;;;;;;1.40;1.30;;;3.40;90.70;;;;;;5047492;28;20745;-82
2021/01/30 11:33:02;;;;;;;1.60;1.50;;;3.70;89.30;;;;;;5066764;28;20504;-82
2021/01/30 11:35:33;;;;;;;1.90;1.80;;;3.70;90.50;;;;;;5064421;28;20453;-84
2021/01/30 11:38:04;;;;;;;2.60;1.40;;;3.30;90.40;;;;;;5057149;28;20439;-82
2021/01/30 11:40:31;;;;;;;2.30;1.30;;;3.50;92.70;;;;;;5049557;28;20448;-83
2021/01/30 11:42:57;;;;;;;1.43;1.33;;;3.40;91.80;;;;;;5045152;28;20457;-83
2021/01/30 11:45:24;;;;;;;1.20;1.20;;;3.60;92.60;;;;;;5052133;28;20484;-81
2021/01/30 11:47:50;;;;;;;1.20;1.10;;;3.40;91.00;;;;;;5043051;28;20464;-83
2021/01/30 11:50:19;;;;;;;1.60;1.50;;;3.40;92.10;;;;;;5049000;28;20504;-81
2021/01/30 11:52:45;;;;;;;1.00;1.00;;;3.60;94.50;;;;;;5046353;28;20470;-83
2021/01/30 11:55:12;;;;;;;1.30;1.20;;;3.50;91.20;;;;;;5060473;28;20464;-82
2021/01/30 11:57:39;;;;;;;1.40;1.30;;;3.50;92.00;;;;;;5049958;28;20475;-84
2021/01/30 12:00:08;;;;;;;1.77;1.63;;;3.60;93.40;;;;;;5051126;28;20453;-82
2021/01/30 12:02:37;;;;;;;1.90;1.43;;;3.50;93.40;;;;;;5043987;28;20456;-82
2021/01/30 12:05:09;;;;;;;1.37;1.27;;;3.40;92.10;;;;;;5046774;28;20461;-80
2021/01/30 12:07:40;;;;;;;1.83;1.73;;;3.40;93.00;;;;;;5047731;28;20464;-83
2021/01/30 12:10:08;;;;;;;2.27;2.07;;;3.50;94.40;;;;;;5044348;28;20807;-81
2021/01/30 12:12:35;;;;;;;1.60;1.50;;;3.40;92.80;;;;;;5055162;28;20460;-82
2021/01/30 12:15:01;;;;;;;2.13;1.93;;;3.40;94.10;;;;;;5044740;28;20582;-82
2021/01/30 12:17:35;;;;;;;1.53;1.37;;;3.40;91.90;;;;;;5045370;28;21113;-81
2021/01/30 12:20:02;;;;;;;1.87;1.77;;;3.10;91.80;;;;;;5052824;28;20444;-81
2021/01/30 12:22:28;;;;;;;1.57;1.47;;;3.40;94.40;;;;;;5051187;28;20755;-82
2021/01/30 12:24:55;;;;;;;1.50;1.40;;;3.50;92.50;;;;;;5048053;28;20444;-81
2021/01/30 12:27:22;;;;;;;1.80;1.70;;;3.30;92.40;;;;;;5050419;28;20442;-81
2021/01/30 12:29:48;;;;;;;2.60;2.40;;;3.10;92.20;;;;;;5051006;28;20459;-82
2021/01/30 12:32:15;;;;;;;2.00;1.90;;;3.10;92.70;;;;;;5062237;28;20441;-82
2021/01/30 12:34:42;;;;;;;2.53;2.33;;;3.10;91.10;;;;;;5047887;28;20962;-82
2021/01/30 12:37:08;;;;;;;3.10;2.80;;;3.10;90.90;;;;;;5049173;28;20556;-82
2021/01/30 12:39:35;;;;;;;3.30;3.00;;;3.00;91.60;;;;;;5058882;28;20463;-82
2021/01/30 12:42:03;;;;;;;3.20;2.67;;;2.80;93.10;;;;;;5054264;28;20502;-82
2021/01/30 12:44:29;;;;;;;4.30;3.90;;;2.70;91.20;;;;;;5052721;28;20457;-81
2021/01/30 12:46:56;;;;;;;5.00;3.63;;;2.80;91.40;;;;;;5061180;28;20428;-82
2021/01/30 12:49:22;;;;;;;3.80;3.50;;;3.20;93.10;;;;;;5060075;28;20478;-82
2021/01/30 12:51:49;;;;;;;4.20;3.80;;;2.90;88.70;;;;;;5062490;28;20463;-81
2021/01/30 12:54:17;;;;;;;3.30;3.00;;;2.90;88.00;;;;;;5059888;28;20452;-85
2021/01/30 12:56:45;;;;;;;4.13;3.70;;;2.80;85.10;;;;;;5068866;28;20451;-85
2021/01/30 12:59:13;;;;;;;4.60;4.23;;;2.80;86.80;;;;;;5070286;28;20446;-84
2021/01/30 13:01:39;;;;;;;4.70;4.30;;;2.80;84.90;;;;;;5072908;28;20449;-84
2021/01/30 13:04:06;;;;;;;4.57;4.17;;;2.80;84.50;;;;;;5066105;28;20479;-83
2021/01/30 13:06:34;;;;;;;3.60;3.30;;;3.10;85.60;;;;;;5060081;28;20479;-80
2021/01/30 13:09:00;;;;;;;4.57;4.17;;;2.70;82.20;;;;;;5064448;28;20496;-81
2021/01/30 13:11:27;;;;;;;4.95;4.45;;;3.00;84.30;;;;;;5061855;28;20425;-83
2021/01/30 13:13:54;;;;;;;5.17;4.67;;;3.00;84.40;;;;;;5061893;28;20225;-82
2021/01/30 13:16:22;;;;;;;4.70;4.30;;;3.50;85.60;;;;;;5063307;28;20468;-81
2021/01/30 13:18:48;;;;;;;4.67;4.27;;;3.30;84.60;;;;;;5059104;28;20487;-84
2021/01/30 13:21:16;;;;;;;5.67;5.13;;;3.40;84.80;;;;;;5056938;28;20464;-81
2021/01/30 13:23:42;;;;;;;5.10;4.60;;;3.20;83.00;;;;;;5056384;28;20495;-83